createdAt,value
2023-07-18T00:00:29.568Z,11.00
2023-07-18T00:05:35.441Z,11.65
2023-07-18T00:10:39.684Z,11.88
2023-07-18T00:15:46.248Z,12.35
2023-07-18T00:20:50.756Z,10.23
2023-07-18T00:25:55.736Z,10.70
2023-07-18T00:31:03.144Z,11.50
2023-07-18T00:36:07.809Z,11.18
2023-07-18T00:41:13.521Z,14.45
2023-07-18T00:46:20.690Z,12.05
2023-07-18T00:51:26.675Z,11.25
2023-07-18T00:56:32.363Z,12.27
2023-07-18T01:01:38.376Z,9.80
2023-07-18T01:06:43.185Z,11.23
2023-07-18T01:11:47.561Z,12.65
2023-07-18T01:16:53.948Z,12.77
2023-07-18T01:22:00.614Z,10.82
2023-07-18T01:27:05.306Z,10.98
2023-07-18T01:32:10.880Z,11.77
2023-07-18T01:37:18.198Z,16.75
2023-07-18T01:42:22.381Z,15.27
2023-07-18T01:47:28.315Z,10.68
2023-07-18T01:52:34.568Z,9.80
2023-07-18T01:57:48.037Z,11.18
2023-07-18T02:02:54.242Z,14.30
2023-07-18T02:08:00.384Z,12.63
2023-07-18T02:13:04.563Z,13.13
2023-07-18T02:18:09.842Z,13.25
2023-07-18T02:23:15.440Z,16.52
2023-07-18T02:28:19.953Z,15.48
2023-07-18T02:33:24.332Z,14.15
2023-07-18T02:38:31.018Z,15.50
2023-07-18T02:43:36.559Z,15.18
2023-07-18T02:48:41.056Z,10.93
2023-07-18T02:53:49.396Z,18.63
2023-07-18T02:58:54.104Z,13.13
2023-07-18T03:03:59.043Z,16.20
2023-07-18T03:09:08.182Z,15.27
2023-07-18T03:14:12.714Z,12.88
2023-07-18T03:19:17.206Z,13.48
2023-07-18T03:24:23.364Z,17.50
2023-07-18T03:29:27.425Z,15.77
2023-07-18T03:34:32.477Z,14.05
2023-07-18T03:39:38.075Z,16.75
2023-07-18T03:44:44.395Z,14.20
2023-07-18T03:49:48.829Z,12.70
2023-07-18T03:54:54.724Z,14.43
2023-07-18T03:59:59.239Z,12.52
2023-07-18T04:05:05.125Z,15.20
2023-07-18T04:10:13.134Z,14.10
2023-07-18T04:15:17.817Z,16.10
2023-07-18T04:20:23.408Z,17.95
2023-07-18T04:25:33.761Z,15.90
2023-07-18T04:30:38.168Z,22.08
2023-07-18T04:35:49.363Z,17.23
2023-07-18T04:40:54.973Z,14.98
2023-07-18T04:46:00.357Z,20.90
2023-07-18T04:51:04.934Z,16.27
2023-07-18T04:56:11.515Z,17.10
2023-07-18T05:01:20.236Z,15.05
2023-07-18T05:06:25.424Z,21.30
2023-07-18T05:11:33.105Z,19.52
2023-07-18T05:16:39.574Z,15.52
2023-07-18T05:21:43.734Z,15.85
2023-07-18T05:26:49.332Z,14.10
2023-07-18T05:31:53.580Z,12.65
2023-07-18T05:36:58.587Z,13.70
2023-07-18T05:42:04.452Z,13.85
2023-07-18T05:47:09.088Z,17.42
2023-07-18T05:52:13.831Z,14.93
2023-07-18T05:57:19.503Z,15.68
2023-07-18T06:02:24.087Z,14.18
2023-07-18T06:07:28.450Z,15.30
2023-07-18T06:12:34.874Z,14.32
2023-07-18T06:17:39.948Z,23.40
2023-07-18T06:22:45.545Z,16.33
2023-07-18T06:27:51.879Z,17.48
2023-07-18T06:32:56.762Z,12.52
2023-07-18T06:38:01.136Z,16.45
2023-07-18T06:43:06.955Z,13.07
2023-07-18T06:48:11.296Z,14.73
2023-07-18T06:53:15.990Z,12.75
2023-07-18T06:58:21.972Z,17.55
2023-07-18T07:03:28.359Z,17.50
2023-07-18T07:08:34.835Z,14.52
2023-07-18T07:13:40.643Z,15.57
2023-07-18T07:18:44.710Z,16.77
2023-07-18T07:23:48.859Z,11.82
2023-07-18T07:28:55.547Z,14.98
2023-07-18T07:34:00.440Z,10.10
2023-07-18T07:39:05.958Z,13.52
2023-07-18T07:44:11.933Z,14.35
2023-07-18T07:49:16.081Z,13.75
2023-07-18T07:54:20.893Z,12.50
2023-07-18T07:59:26.382Z,10.77
2023-07-18T08:04:31.736Z,13.57
2023-07-18T08:09:38.282Z,16.65
2023-07-18T08:14:46.063Z,14.45
2023-07-18T08:19:50.516Z,15.32
2023-07-18T08:24:54.945Z,13.85
2023-07-18T08:30:05.558Z,17.95
2023-07-18T08:35:10.747Z,11.43
2023-07-18T08:40:15.220Z,14.90
2023-07-18T08:45:24.971Z,11.82
2023-07-18T08:50:32.194Z,17.13
2023-07-18T08:55:38.179Z,12.63
2023-07-18T09:00:44.749Z,15.52
2023-07-18T09:05:52.742Z,14.23
2023-07-18T09:11:04.860Z,13.00
2023-07-18T09:16:18.804Z,11.95
2023-07-18T09:21:25.189Z,14.70
2023-07-18T09:26:30.267Z,15.15
2023-07-18T09:31:36.465Z,13.75
2023-07-18T09:36:41.690Z,11.50
2023-07-18T09:41:46.683Z,15.65
2023-07-18T09:46:53.333Z,15.55
2023-07-18T09:52:04.433Z,21.98
2023-07-18T09:57:11.561Z,16.33
2023-07-18T10:02:17.880Z,9.13
2023-07-18T10:07:23.000Z,10.43
2023-07-18T10:12:27.976Z,11.73
2023-07-18T10:17:50.928Z,11.57
2023-07-18T10:22:59.867Z,14.00
2023-07-18T10:28:05.601Z,10.93
2023-07-18T10:33:11.932Z,14.57
2023-07-18T10:38:16.791Z,7.55
2023-07-18T10:43:23.638Z,11.13
2023-07-18T10:48:32.188Z,9.83
2023-07-18T10:53:37.027Z,12.85
2023-07-18T10:58:42.372Z,14.50
2023-07-18T11:09:17.168Z,9.52
2023-07-18T11:14:21.594Z,10.27
2023-07-18T11:19:29.549Z,11.93
2023-07-18T11:24:34.223Z,10.43
2023-07-18T11:29:38.548Z,8.77
2023-07-18T11:34:44.007Z,11.02
2023-07-18T11:39:49.787Z,9.13
2023-07-18T11:44:56.306Z,13.50
2023-07-18T11:50:10.089Z,14.20
2023-07-18T11:55:17.459Z,9.25
2023-07-18T12:00:27.824Z,9.18
2023-07-18T12:05:34.124Z,12.27
2023-07-18T12:10:40.051Z,10.90
2023-07-18T12:15:45.954Z,9.38
2023-07-18T12:20:55.101Z,7.70
2023-07-18T12:26:00.148Z,12.02
2023-07-18T12:31:08.386Z,11.57
2023-07-18T12:36:18.013Z,9.98
2023-07-18T12:41:24.176Z,6.13
2023-07-18T12:46:33.025Z,10.20
2023-07-18T12:51:39.345Z,11.20
2023-07-18T12:56:44.746Z,12.23
2023-07-18T13:01:49.010Z,12.98
2023-07-18T13:06:57.224Z,8.70
2023-07-18T13:12:03.942Z,13.25
2023-07-18T13:17:10.083Z,11.73
2023-07-18T13:22:17.420Z,15.15
2023-07-18T13:27:23.940Z,11.85
2023-07-18T13:32:28.284Z,11.80
2023-07-18T13:37:34.189Z,9.90
2023-07-18T13:42:38.448Z,12.10
2023-07-18T13:47:44.630Z,9.68
2023-07-18T13:52:50.717Z,11.40
2023-07-18T13:57:58.167Z,15.02
2023-07-18T14:03:13.278Z,6.65
2023-07-18T14:08:26.238Z,10.52
2023-07-18T14:13:32.104Z,11.02
2023-07-18T14:18:36.621Z,8.25
2023-07-18T14:23:42.116Z,12.80
2023-07-18T14:28:46.269Z,8.70
2023-07-18T14:34:04.692Z,7.97
2023-07-18T14:39:14.107Z,10.38
2023-07-18T14:44:19.556Z,8.75
2023-07-18T14:49:24.182Z,7.47
2023-07-18T14:54:30.104Z,5.10
2023-07-18T14:59:36.050Z,6.65
2023-07-18T15:04:40.808Z,8.27
2023-07-18T15:09:48.283Z,5.78
2023-07-18T15:14:54.263Z,6.25
2023-07-18T15:19:59.677Z,6.35
2023-07-18T15:25:07.811Z,12.07
2023-07-18T15:30:13.758Z,6.88
2023-07-18T15:35:18.578Z,6.55
2023-07-18T15:40:24.815Z,5.95
2023-07-18T15:45:32.362Z,6.28
2023-07-18T15:50:38.349Z,12.07
2023-07-18T15:55:44.263Z,6.82
2023-07-18T16:00:52.422Z,8.63
2023-07-18T16:05:58.676Z,6.13
2023-07-18T16:11:05.962Z,7.38
2023-07-18T16:16:16.653Z,8.32
2023-07-18T16:21:24.361Z,5.72
2023-07-18T16:26:31.584Z,7.82
2023-07-18T16:31:39.240Z,6.13
2023-07-18T16:36:43.881Z,6.25
2023-07-18T16:41:49.862Z,15.57
2023-07-18T16:46:54.612Z,7.50
2023-07-18T16:51:59.633Z,6.95
2023-07-18T16:57:05.407Z,4.22
2023-07-18T17:02:09.583Z,10.50
2023-07-18T17:07:14.229Z,7.10
2023-07-18T17:12:20.132Z,5.30
2023-07-18T17:17:24.578Z,6.05
2023-07-18T17:22:28.836Z,4.60
2023-07-18T17:27:34.882Z,9.15
2023-07-18T17:32:39.426Z,4.07
2023-07-18T17:37:43.577Z,4.32
2023-07-18T17:42:51.350Z,4.65
2023-07-18T17:47:58.668Z,9.82
2023-07-18T17:53:08.373Z,4.45
2023-07-18T17:58:14.089Z,4.20
2023-07-18T18:03:18.718Z,9.73
2023-07-18T18:08:23.563Z,7.38
2023-07-18T18:13:29.970Z,8.40
2023-07-18T18:18:34.321Z,12.77
2023-07-18T18:23:40.915Z,11.38
2023-07-18T18:28:48.466Z,5.95
2023-07-18T18:33:54.291Z,7.15
2023-07-18T18:38:59.124Z,9.90
2023-07-18T18:44:06.602Z,10.15
2023-07-18T18:49:25.049Z,11.48
2023-07-18T18:54:30.832Z,7.35
2023-07-18T18:59:39.875Z,6.50
2023-07-18T19:04:50.524Z,7.55
2023-07-18T19:09:54.895Z,7.90
2023-07-18T19:15:01.053Z,8.90
2023-07-18T19:20:06.431Z,10.85
2023-07-18T19:25:10.908Z,10.88
2023-07-18T19:30:17.552Z,9.25
2023-07-18T19:35:21.777Z,8.13
2023-07-18T19:40:26.362Z,6.43
2023-07-18T19:45:32.122Z,9.20
2023-07-18T19:50:40.359Z,5.95
2023-07-18T20:00:51.153Z,6.72
2023-07-18T20:05:55.369Z,7.63
2023-07-18T20:10:59.642Z,7.68
2023-07-18T20:16:05.752Z,8.77
2023-07-18T20:21:09.978Z,6.72
2023-07-18T20:26:14.833Z,6.38
2023-07-18T20:31:22.161Z,7.57
2023-07-18T20:41:32.172Z,7.47
2023-07-18T20:46:37.895Z,7.50
2023-07-18T20:51:43.268Z,8.60
2023-07-18T20:56:47.652Z,6.47
2023-07-18T21:01:53.508Z,7.55
2023-07-18T21:06:57.729Z,6.97
2023-07-18T21:12:02.140Z,7.15
2023-07-18T21:17:08.290Z,9.20
2023-07-18T21:22:12.547Z,7.65
2023-07-18T21:27:17.575Z,6.30
2023-07-18T21:32:23.871Z,6.53
2023-07-18T21:37:28.213Z,5.90
2023-07-18T21:42:32.476Z,11.57
2023-07-18T21:47:39.504Z,6.45
2023-07-18T21:52:45.636Z,9.07
2023-07-18T21:57:50.002Z,6.57
2023-07-18T22:02:55.657Z,7.72
2023-07-18T22:07:59.886Z,9.23
2023-07-18T22:13:04.568Z,8.27
2023-07-18T22:18:25.784Z,6.82
2023-07-18T22:23:32.220Z,7.28
2023-07-18T22:28:36.453Z,8.32
2023-07-18T22:33:42.661Z,5.22
2023-07-18T22:38:46.679Z,8.18
2023-07-18T22:43:51.196Z,5.85
2023-07-18T22:48:57.179Z,6.05
2023-07-18T22:54:02.003Z,6.68
2023-07-18T22:59:06.817Z,9.18
2023-07-18T23:04:12.971Z,5.03
2023-07-18T23:09:17.336Z,4.43
2023-07-18T23:14:21.819Z,6.32
2023-07-18T23:19:27.822Z,4.43
2023-07-18T23:24:32.089Z,5.22
2023-07-18T23:29:36.875Z,8.70
2023-07-18T23:34:42.466Z,4.60
2023-07-18T23:39:46.664Z,4.78
2023-07-18T23:44:50.860Z,5.75
2023-07-18T23:49:57.098Z,7.82
2023-07-18T23:55:01.549Z,5.75
